createdAt,value
2019-02-15T00:02:16.470Z,5.80
2019-02-15T00:04:43.558Z,5.80
2019-02-15T00:07:10.760Z,6.63
2019-02-15T00:09:37.804Z,5.73
2019-02-15T00:12:04.882Z,5.77
2019-02-15T00:14:47.127Z,5.73
2019-02-15T00:17:16.109Z,5.63
2019-02-15T00:19:46.882Z,5.13
2019-02-15T00:22:14.003Z,5.33
2019-02-15T00:24:41.116Z,6.10
2019-02-15T00:27:08.307Z,6.33
2019-02-15T00:29:35.467Z,5.47
2019-02-15T00:32:02.586Z,5.23
2019-02-15T00:34:29.632Z,5.83
2019-02-15T00:36:56.883Z,5.50
2019-02-15T00:39:23.966Z,6.83
2019-02-15T00:41:52.856Z,6.57
2019-02-15T00:45:01.266Z,6.67
2019-02-15T00:47:48.609Z,6.13
2019-02-15T00:50:41.324Z,6.97
2019-02-15T00:53:34.168Z,6.60
2019-02-15T00:56:21.272Z,6.33
2019-02-15T00:59:10.866Z,6.50
2019-02-15T01:02:09.209Z,6.90
2019-02-15T01:04:54.492Z,6.90
2019-02-15T01:07:56.619Z,7.03
2019-02-15T01:10:43.264Z,6.67
2019-02-15T01:13:13.632Z,6.37
2019-02-15T01:15:40.672Z,6.13
2019-02-15T01:18:08.254Z,6.33
2019-02-15T01:20:35.368Z,6.30
2019-02-15T01:23:09.660Z,7.07
2019-02-15T01:25:48.992Z,7.60
2019-02-15T01:28:41.506Z,6.60
2019-02-15T01:31:33.943Z,7.53
2019-02-15T01:34:20.414Z,8.03
2019-02-15T01:37:07.058Z,7.57
2019-02-15T01:39:53.848Z,6.53
2019-02-15T01:42:37.798Z,6.37
2019-02-15T01:45:13.510Z,6.90
2019-02-15T01:47:44.394Z,6.80
2019-02-15T01:50:11.619Z,9.00
2019-02-15T01:52:38.736Z,9.67
2019-02-15T01:55:06.537Z,9.73
2019-02-15T01:57:33.616Z,7.97
2019-02-15T02:00:00.758Z,7.77
2019-02-15T02:02:29.216Z,7.40
2019-02-15T02:04:56.293Z,7.47
2019-02-15T02:07:23.498Z,8.00
2019-02-15T02:09:50.642Z,7.60
2019-02-15T02:12:17.743Z,7.70
2019-02-15T02:14:44.961Z,8.00
2019-02-15T02:17:12.003Z,7.37
2019-02-15T02:19:39.080Z,7.87
2019-02-15T02:22:06.144Z,9.70
2019-02-15T02:24:33.284Z,8.40
2019-02-15T02:27:00.365Z,7.57
2019-02-15T02:29:27.427Z,7.43
2019-02-15T02:31:54.497Z,8.83
2019-02-15T02:34:21.574Z,8.17
2019-02-15T02:36:50.050Z,8.43
2019-02-15T02:39:17.138Z,8.97
2019-02-15T02:41:44.187Z,8.77
2019-02-15T02:44:12.370Z,9.03
2019-02-15T02:46:39.444Z,8.53
2019-02-15T02:49:06.505Z,7.77
2019-02-15T02:51:33.587Z,8.53
2019-02-15T02:54:00.695Z,8.30
2019-02-15T02:56:27.795Z,7.87
2019-02-15T02:58:59.509Z,8.40
2019-02-15T03:01:26.638Z,7.70
2019-02-15T03:03:53.660Z,7.67
2019-02-15T03:06:20.849Z,8.40
2019-02-15T03:08:47.952Z,8.50
2019-02-15T03:11:15.051Z,8.50
2019-02-15T03:13:42.120Z,8.43
2019-02-15T03:16:09.257Z,8.00
2019-02-15T03:18:36.331Z,7.67
2019-02-15T03:21:03.497Z,8.40
2019-02-15T03:23:30.608Z,8.40
2019-02-15T03:25:57.805Z,7.67
2019-02-15T03:28:24.863Z,9.57
2019-02-15T03:30:51.985Z,9.40
2019-02-15T03:33:19.034Z,7.80
2019-02-15T03:35:54.981Z,8.27
2019-02-15T03:38:29.171Z,8.87
2019-02-15T03:40:59.869Z,8.53
2019-02-15T03:43:26.926Z,9.17
2019-02-15T03:45:53.961Z,6.93
2019-02-15T03:48:21.069Z,8.53
2019-02-15T03:50:48.207Z,8.17
2019-02-15T03:53:15.289Z,8.40
2019-02-15T03:55:42.434Z,8.83
2019-02-15T03:58:09.467Z,8.40
2019-02-15T04:00:36.558Z,8.27
2019-02-15T04:03:03.628Z,8.43
2019-02-15T04:05:31.924Z,9.53
2019-02-15T04:07:58.992Z,9.70
2019-02-15T04:10:26.030Z,9.60
2019-02-15T04:12:53.251Z,8.23
2019-02-15T04:15:20.488Z,9.17
2019-02-15T04:17:48.104Z,7.80
2019-02-15T04:20:15.210Z,8.70
2019-02-15T04:22:43.404Z,9.90
2019-02-15T04:25:10.465Z,9.57
2019-02-15T04:27:37.592Z,9.40
2019-02-15T04:30:05.613Z,9.07
2019-02-15T04:32:32.689Z,8.93
2019-02-15T04:34:59.731Z,7.80
2019-02-15T04:37:26.786Z,9.40
2019-02-15T04:39:53.874Z,9.10
2019-02-15T04:42:20.948Z,9.23
2019-02-15T04:44:48.020Z,8.73
2019-02-15T04:47:15.132Z,8.97
2019-02-15T04:49:42.570Z,8.93
2019-02-15T04:52:11.259Z,9.03
2019-02-15T04:54:38.478Z,8.43
2019-02-15T04:57:05.575Z,8.97
2019-02-15T04:59:32.664Z,8.60
2019-02-15T05:01:59.767Z,8.40
2019-02-15T05:04:26.846Z,8.33
2019-02-15T05:06:54.026Z,8.03
2019-02-15T05:09:21.110Z,9.10
2019-02-15T05:11:48.179Z,9.30
2019-02-15T05:14:15.325Z,9.57
2019-02-15T05:16:42.458Z,8.97
2019-02-15T05:19:09.628Z,9.00
2019-02-15T05:21:36.696Z,8.93
2019-02-15T05:24:03.928Z,9.00
2019-02-15T05:26:31.032Z,9.33
2019-02-15T05:28:58.172Z,9.67
2019-02-15T05:31:25.247Z,8.93
2019-02-15T05:33:52.318Z,9.40
2019-02-15T05:36:19.435Z,8.70
2019-02-15T05:38:46.537Z,8.73
2019-02-15T05:41:13.658Z,8.97
2019-02-15T05:43:40.755Z,9.87
2019-02-15T05:46:07.825Z,8.33
2019-02-15T05:48:34.874Z,8.87
2019-02-15T05:51:02.080Z,8.87
2019-02-15T05:53:29.136Z,8.43
2019-02-15T05:55:56.223Z,11.10
2019-02-15T05:58:23.628Z,9.17
2019-02-15T06:00:50.736Z,9.33
2019-02-15T06:03:17.779Z,10.83
2019-02-15T06:05:44.847Z,9.73
2019-02-15T06:08:13.054Z,9.33
2019-02-15T06:10:40.156Z,9.50
2019-02-15T06:13:11.947Z,9.40
2019-02-15T06:15:39.075Z,9.47
2019-02-15T06:18:06.130Z,9.37
2019-02-15T06:20:33.196Z,9.10
2019-02-15T06:23:00.326Z,9.43
2019-02-15T06:25:27.408Z,9.10
2019-02-15T06:27:54.548Z,9.13
2019-02-15T06:30:21.649Z,9.93
2019-02-15T06:32:48.770Z,9.90
2019-02-15T06:35:15.833Z,10.10
2019-02-15T06:37:42.923Z,9.57
2019-02-15T06:40:09.997Z,9.10
2019-02-15T06:42:37.052Z,9.27
2019-02-15T06:45:04.781Z,8.97
2019-02-15T06:47:31.854Z,8.57
2019-02-15T06:50:00.378Z,9.17
2019-02-15T06:52:28.419Z,8.37
2019-02-15T06:54:55.502Z,9.53
2019-02-15T06:57:22.545Z,9.97
2019-02-15T07:00:12.256Z,9.10
2019-02-15T07:03:14.151Z,9.10
2019-02-15T07:05:47.806Z,9.10
2019-02-15T07:08:14.877Z,10.50
2019-02-15T07:10:41.970Z,8.93
2019-02-15T07:13:09.255Z,10.50
2019-02-15T07:15:36.356Z,10.20
2019-02-15T07:18:03.438Z,9.97
2019-02-15T07:20:30.531Z,10.03
2019-02-15T07:22:57.579Z,10.70
2019-02-15T07:25:24.674Z,9.80
2019-02-15T07:27:51.980Z,10.53
2019-02-15T07:30:19.097Z,9.63
2019-02-15T07:32:46.141Z,9.27
2019-02-15T07:35:13.404Z,11.10
2019-02-15T07:37:40.496Z,9.43
2019-02-15T07:40:08.393Z,10.80
2019-02-15T07:42:35.658Z,11.23
2019-02-15T07:45:02.929Z,11.23
2019-02-15T07:47:31.089Z,10.10
2019-02-15T07:49:58.193Z,9.33
2019-02-15T07:52:26.897Z,10.60
2019-02-15T07:54:56.160Z,10.77
2019-02-15T07:57:23.384Z,11.97
2019-02-15T07:59:50.623Z,11.30
2019-02-15T08:02:17.655Z,11.43
2019-02-15T08:04:44.751Z,9.03
2019-02-15T08:11:30.910Z,9.07
2019-02-15T08:14:02.096Z,9.83
2019-02-15T08:16:29.323Z,9.80
2019-02-15T08:18:56.394Z,8.70
2019-02-15T08:21:23.569Z,8.87
2019-02-15T08:23:50.627Z,7.33
2019-02-15T08:26:17.684Z,8.20
2019-02-15T08:28:44.798Z,8.47
2019-02-15T08:31:11.859Z,9.60
2019-02-15T08:33:38.940Z,8.07
2019-02-15T08:36:06.041Z,7.63
2019-02-15T08:38:33.133Z,7.53
2019-02-15T08:41:00.402Z,7.03
2019-02-15T08:43:27.529Z,7.97
2019-02-15T08:46:00.720Z,7.57
2019-02-15T08:48:24.212Z,8.20
2019-02-15T08:50:51.345Z,7.77
2019-02-15T08:53:18.407Z,7.00
2019-02-15T08:55:45.466Z,7.17
2019-02-15T08:58:12.620Z,7.43
2019-02-15T09:00:39.675Z,7.53
2019-02-15T09:03:06.843Z,7.77
2019-02-15T09:05:49.093Z,7.40
2019-02-15T09:08:16.157Z,7.80
2019-02-15T09:10:43.209Z,7.53
2019-02-15T09:13:10.412Z,8.07
2019-02-15T09:15:37.490Z,7.53
2019-02-15T09:18:10.665Z,8.13
2019-02-15T09:20:37.760Z,7.67
2019-02-15T09:23:04.808Z,8.10
2019-02-15T09:25:31.920Z,7.03
2019-02-15T09:28:18.592Z,7.70
2019-02-15T09:30:49.957Z,7.63
2019-02-15T09:33:17.036Z,7.70
2019-02-15T09:35:44.142Z,8.10
2019-02-15T09:38:11.226Z,8.20
2019-02-15T09:40:38.343Z,7.50
2019-02-15T09:43:05.456Z,8.40
2019-02-15T09:45:33.052Z,7.30
2019-02-15T09:48:00.207Z,7.37
2019-02-15T09:50:27.297Z,6.60
2019-02-15T09:52:54.349Z,7.43
2019-02-15T09:55:21.408Z,7.10
2019-02-15T09:57:48.497Z,8.83
2019-02-15T10:00:15.550Z,6.77
2019-02-15T10:03:01.307Z,7.53
2019-02-15T10:05:28.370Z,6.73
2019-02-15T10:07:55.657Z,6.80
2019-02-15T10:10:22.750Z,7.03
2019-02-15T10:12:49.798Z,6.93
2019-02-15T10:15:16.866Z,7.63
2019-02-15T10:17:44.290Z,6.97
2019-02-15T10:20:11.351Z,7.40
2019-02-15T10:22:38.445Z,6.90
2019-02-15T10:25:06.171Z,6.67
2019-02-15T10:27:33.304Z,6.93
2019-02-15T10:30:02.493Z,7.00
2019-02-15T10:32:29.353Z,6.13
2019-02-15T10:34:56.408Z,7.33
2019-02-15T10:37:43.699Z,6.57
2019-02-15T10:40:10.924Z,6.67
2019-02-15T10:42:38.152Z,6.73
2019-02-15T10:45:06.457Z,6.17
2019-02-15T10:47:33.524Z,7.10
2019-02-15T10:50:00.584Z,6.50
2019-02-15T10:52:27.820Z,6.70
2019-02-15T10:54:54.884Z,6.67
2019-02-15T10:57:22.103Z,6.33
2019-02-15T10:59:49.284Z,6.63
2019-02-15T11:02:16.382Z,6.87
2019-02-15T11:04:43.528Z,7.17
2019-02-15T11:07:10.603Z,6.60
2019-02-15T11:09:37.845Z,6.83
2019-02-15T11:12:05.042Z,6.73
2019-02-15T11:14:32.184Z,7.13
2019-02-15T11:16:59.268Z,7.03
2019-02-15T11:19:26.386Z,7.37
2019-02-15T11:21:53.469Z,6.40
2019-02-15T11:24:20.636Z,6.43
2019-02-15T11:26:47.753Z,5.97
2019-02-15T11:29:14.860Z,6.33
2019-02-15T11:31:41.987Z,6.60
2019-02-15T11:34:27.527Z,6.17
2019-02-15T11:36:54.583Z,6.43
2019-02-15T11:39:21.661Z,6.90
2019-02-15T11:41:48.865Z,6.57
2019-02-15T11:44:15.936Z,6.30
2019-02-15T11:46:43.127Z,6.70
2019-02-15T11:49:11.346Z,7.37
2019-02-15T11:51:38.424Z,6.23
2019-02-15T11:54:05.536Z,6.77
2019-02-15T11:56:32.605Z,6.93
2019-02-15T11:59:05.135Z,7.00
2019-02-15T12:01:32.199Z,6.00
2019-02-15T12:03:59.300Z,5.77
2019-02-15T12:06:26.371Z,6.70
2019-02-15T12:08:53.429Z,6.63
2019-02-15T12:11:38.767Z,6.53
2019-02-15T12:14:05.857Z,6.90
2019-02-15T12:16:45.448Z,6.30
2019-02-15T12:19:12.582Z,6.60
2019-02-15T12:21:39.699Z,5.67
2019-02-15T12:24:06.777Z,6.23
2019-02-15T12:26:33.903Z,6.10
2019-02-15T12:29:00.979Z,6.33
2019-02-15T12:31:28.201Z,7.27
2019-02-15T12:33:55.445Z,6.37
2019-02-15T12:36:22.658Z,6.83
2019-02-15T12:38:49.718Z,6.43
2019-02-15T12:41:16.796Z,6.30
2019-02-15T12:43:43.841Z,6.37
2019-02-15T12:46:10.906Z,5.83
2019-02-15T12:48:38.017Z,6.10
2019-02-15T12:51:05.079Z,5.73
2019-02-15T12:53:32.164Z,6.30
2019-02-15T12:55:59.325Z,6.13
2019-02-15T13:06:50.723Z,6.50
2019-02-15T13:10:50.290Z,6.60
2019-02-15T13:14:13.083Z,5.93
2019-02-15T13:17:07.666Z,6.00
2019-02-15T13:23:57.533Z,5.57
2019-02-15T13:31:23.177Z,5.60
2019-02-15T13:34:57.683Z,8.07
2019-02-15T13:41:04.708Z,6.23
2019-02-15T13:43:31.815Z,5.00
2019-02-15T13:45:58.857Z,5.43
2019-02-15T13:48:25.927Z,6.27
2019-02-15T13:50:53.047Z,5.30
2019-02-15T13:53:20.125Z,6.00
2019-02-15T13:55:47.630Z,5.60
2019-02-15T13:58:16.726Z,5.93
2019-02-15T14:00:43.830Z,5.30
2019-02-15T14:03:11.144Z,6.20
2019-02-15T14:05:38.265Z,5.77
2019-02-15T14:08:05.532Z,5.80
2019-02-15T14:10:32.635Z,5.30
2019-02-15T14:12:59.850Z,5.30
2019-02-15T14:15:27.373Z,5.23
2019-02-15T14:17:54.727Z,5.73
2019-02-15T14:20:22.066Z,4.90
2019-02-15T14:22:49.331Z,5.80
2019-02-15T14:25:16.468Z,5.50
2019-02-15T14:27:43.618Z,5.77
2019-02-15T14:30:10.820Z,5.20
2019-02-15T14:32:38.070Z,5.17
2019-02-15T14:35:05.783Z,5.50
2019-02-15T14:37:32.833Z,5.67
2019-02-15T14:40:01.159Z,5.63
2019-02-15T14:42:28.269Z,6.27
2019-02-15T14:44:55.338Z,5.40
2019-02-15T14:47:22.436Z,6.07
2019-02-15T14:49:49.542Z,5.57
2019-02-15T14:52:16.813Z,5.50
2019-02-15T14:54:43.878Z,5.60
2019-02-15T14:57:10.992Z,5.70
2019-02-15T14:59:39.040Z,6.43
2019-02-15T15:02:06.315Z,5.60
2019-02-15T15:04:33.427Z,5.90
2019-02-15T15:07:00.503Z,5.90
2019-02-15T15:09:27.624Z,5.63
2019-02-15T15:11:54.760Z,5.80
2019-02-15T15:14:21.855Z,6.20
2019-02-15T15:16:48.912Z,5.50
2019-02-15T15:19:46.350Z,6.17
2019-02-15T15:22:13.910Z,6.10
2019-02-15T15:24:41.047Z,6.03
2019-02-15T15:27:08.147Z,5.80
2019-02-15T15:29:35.217Z,5.83
2019-02-15T15:32:02.329Z,6.13
2019-02-15T15:34:29.523Z,5.50
2019-02-15T15:36:56.656Z,5.67
2019-02-15T15:39:23.790Z,5.83
2019-02-15T15:41:50.995Z,6.10
2019-02-15T15:44:18.057Z,5.83
2019-02-15T15:46:45.342Z,5.87
2019-02-15T15:49:12.409Z,5.50
2019-02-15T15:51:39.507Z,5.93
2019-02-15T15:54:06.616Z,5.77
2019-02-15T15:56:33.683Z,4.60
2019-02-15T15:59:00.761Z,5.90
2019-02-15T16:01:27.997Z,5.53
2019-02-15T16:03:55.120Z,5.97
2019-02-15T16:06:24.690Z,5.30
2019-02-15T16:08:51.515Z,6.13
2019-02-15T16:11:18.766Z,5.30
2019-02-15T16:13:47.647Z,5.70
2019-02-15T16:16:14.744Z,5.33
2019-02-15T16:18:42.999Z,5.13
2019-02-15T16:21:10.085Z,5.87
2019-02-15T16:23:37.409Z,5.10
2019-02-15T16:26:04.519Z,5.43
2019-02-15T16:28:31.643Z,5.67
2019-02-15T16:30:58.740Z,5.93
2019-02-15T16:33:26.043Z,5.50
2019-02-15T16:35:53.107Z,5.53
2019-02-15T16:38:26.324Z,5.37
2019-02-15T16:40:53.550Z,6.23
2019-02-15T16:43:20.608Z,5.37
2019-02-15T16:45:47.911Z,6.83
2019-02-15T16:48:15.127Z,8.30
2019-02-15T16:50:42.183Z,6.87
2019-02-15T16:53:09.244Z,6.67
2019-02-15T16:55:36.574Z,5.97
2019-02-15T16:58:03.668Z,7.07
2019-02-15T17:00:30.821Z,5.50
2019-02-15T17:02:57.925Z,5.70
2019-02-15T17:05:25.133Z,6.27
2019-02-15T17:07:52.221Z,5.50
2019-02-15T17:10:19.338Z,5.37
2019-02-15T17:12:46.426Z,5.67
2019-02-15T17:15:13.495Z,5.00
2019-02-15T17:17:40.601Z,5.37
2019-02-15T17:20:08.599Z,5.83
2019-02-15T17:22:35.675Z,5.33
2019-02-15T17:25:04.624Z,6.20
2019-02-15T17:27:31.701Z,6.33
2019-02-15T17:29:58.791Z,8.47
2019-02-15T17:32:25.899Z,6.30
2019-02-15T17:34:53.047Z,6.23
2019-02-15T17:37:20.119Z,5.23
2019-02-15T17:39:47.234Z,6.87
2019-02-15T17:42:14.353Z,5.90
2019-02-15T17:44:41.512Z,6.27
2019-02-15T17:47:10.681Z,7.83
2019-02-15T17:53:18.597Z,6.50
2019-02-15T17:55:45.990Z,4.53
2019-02-15T17:58:13.103Z,5.63
2019-02-15T18:00:40.249Z,5.03
2019-02-15T18:03:07.344Z,4.00
2019-02-15T18:05:34.514Z,3.83
2019-02-15T18:08:01.729Z,4.10
2019-02-15T18:10:28.797Z,3.43
2019-02-15T18:12:55.864Z,3.90
2019-02-15T18:16:00.660Z,3.23
2019-02-15T18:22:08.844Z,3.20
2019-02-15T18:24:35.949Z,3.27
2019-02-15T18:27:03.561Z,4.80
2019-02-15T18:29:30.824Z,3.80
2019-02-15T18:32:32.446Z,4.00
2019-02-15T18:34:59.617Z,3.57
2019-02-15T18:37:26.816Z,3.30
2019-02-15T18:40:00.112Z,3.37
2019-02-15T18:42:27.523Z,3.33
2019-02-15T18:44:54.636Z,3.20
2019-02-15T18:47:21.841Z,3.27
2019-02-15T18:49:48.969Z,2.90
2019-02-15T18:52:16.214Z,3.90
2019-02-15T18:54:43.375Z,3.20
2019-02-15T18:57:10.593Z,2.80
2019-02-15T19:03:20.253Z,3.67
2019-02-15T19:05:47.599Z,3.17
2019-02-15T19:08:14.693Z,3.60
2019-02-15T19:10:42.031Z,3.87
2019-02-15T19:13:09.099Z,3.67
2019-02-15T19:15:36.238Z,3.83
2019-02-15T19:18:03.457Z,3.63
2019-02-15T19:20:30.544Z,3.43
2019-02-15T19:22:57.860Z,3.77
2019-02-15T19:25:26.158Z,4.00
2019-02-15T19:27:53.474Z,4.50
2019-02-15T19:30:21.792Z,3.83
2019-02-15T19:32:48.968Z,4.00
2019-02-15T19:35:16.249Z,3.97
2019-02-15T19:37:43.346Z,4.47
2019-02-15T19:40:11.465Z,4.00
2019-02-15T19:42:39.812Z,4.23
2019-02-15T19:45:10.050Z,4.60
2019-02-15T19:47:37.349Z,4.47
2019-02-15T19:50:06.673Z,4.10
2019-02-15T19:52:33.752Z,4.33
2019-02-15T19:55:00.929Z,4.27
2019-02-15T19:57:28.677Z,5.27
2019-02-15T20:00:15.900Z,4.80
2019-02-15T20:02:47.458Z,4.37
2019-02-15T20:05:14.570Z,4.40
2019-02-15T20:07:41.728Z,4.70
2019-02-15T20:10:45.453Z,4.77
2019-02-15T20:13:16.888Z,5.17
2019-02-15T20:15:43.950Z,4.57
2019-02-15T20:18:11.028Z,5.03
2019-02-15T20:20:38.255Z,4.43
2019-02-15T20:23:05.436Z,5.10
2019-02-15T20:25:32.668Z,5.30
2019-02-15T20:27:59.845Z,4.77
2019-02-15T20:30:26.976Z,4.70
2019-02-15T20:32:54.054Z,4.90
2019-02-15T20:35:21.182Z,4.73
2019-02-15T20:37:48.394Z,4.80
2019-02-15T20:40:15.506Z,5.07
2019-02-15T20:43:37.724Z,5.33
2019-02-15T20:46:04.795Z,5.23
2019-02-15T20:48:31.875Z,4.63
2019-02-15T20:50:59.086Z,5.07
2019-02-15T20:53:26.251Z,5.50
2019-02-15T20:56:37.299Z,5.67
2019-02-15T20:59:04.383Z,5.27
2019-02-15T21:01:31.560Z,5.53
2019-02-15T21:03:58.891Z,5.80
2019-02-15T21:06:26.089Z,5.53
2019-02-15T21:09:11.588Z,5.50
2019-02-15T21:11:38.672Z,5.33
2019-02-15T21:14:06.118Z,5.90
2019-02-15T21:16:34.475Z,6.33
2019-02-15T21:19:01.570Z,5.20
2019-02-15T21:21:28.636Z,5.60
2019-02-15T21:23:55.818Z,5.40
2019-02-15T21:26:22.995Z,5.80
2019-02-15T21:29:28.734Z,5.77
2019-02-15T21:31:57.084Z,5.20
2019-02-15T21:35:07.434Z,5.70
2019-02-15T21:37:34.772Z,4.90
2019-02-15T21:40:01.854Z,5.37
2019-02-15T21:42:29.039Z,5.70
2019-02-15T21:44:56.190Z,5.57
2019-02-15T21:47:23.279Z,6.30
2019-02-15T21:49:50.692Z,6.10
2019-02-15T21:52:18.859Z,5.70
2019-02-15T21:54:45.953Z,6.27
2019-02-15T21:57:13.343Z,6.43
2019-02-15T21:59:40.446Z,6.70
2019-02-15T22:02:07.707Z,6.03
2019-02-15T22:04:34.816Z,5.83
2019-02-15T22:07:01.986Z,6.13
2019-02-15T22:09:29.228Z,5.43
2019-02-15T22:11:56.446Z,5.80
2019-02-15T22:14:23.586Z,5.27
2019-02-15T22:16:50.656Z,5.43
2019-02-15T22:19:17.758Z,6.40
2019-02-15T22:21:44.946Z,6.10
2019-02-15T22:24:12.048Z,6.33
2019-02-15T22:26:39.297Z,5.67
2019-02-15T22:29:06.479Z,6.07
2019-02-15T22:31:33.673Z,6.20
2019-02-15T22:34:00.775Z,5.63
2019-02-15T22:36:27.898Z,5.93
2019-02-15T22:38:56.085Z,5.97
2019-02-15T22:41:23.204Z,5.53
2019-02-15T22:43:52.513Z,6.00
2019-02-15T22:46:19.572Z,6.23
2019-02-15T22:48:46.663Z,6.33
2019-02-15T22:51:13.803Z,6.10
2019-02-15T22:53:40.984Z,5.97
2019-02-15T22:56:08.080Z,5.93
2019-02-15T22:58:42.726Z,5.90
2019-02-15T23:01:13.711Z,6.07
2019-02-15T23:03:40.835Z,6.13
2019-02-15T23:06:07.964Z,5.43
2019-02-15T23:08:35.440Z,5.60
2019-02-15T23:11:03.583Z,6.33
2019-02-15T23:13:30.827Z,5.73
2019-02-15T23:15:57.910Z,5.17
2019-02-15T23:18:49.855Z,5.10
2019-02-15T23:21:17.023Z,5.70
2019-02-15T23:23:44.098Z,5.47
2019-02-15T23:26:11.316Z,6.10
2019-02-15T23:28:38.389Z,5.50
2019-02-15T23:31:05.606Z,6.10
2019-02-15T23:33:32.735Z,5.80
2019-02-15T23:35:59.883Z,5.37
2019-02-15T23:38:28.608Z,5.93
2019-02-15T23:40:55.682Z,5.23
2019-02-15T23:43:29.815Z,5.90
2019-02-15T23:45:57.010Z,5.80
2019-02-15T23:48:24.090Z,5.77
2019-02-15T23:50:54.869Z,6.13
2019-02-15T23:53:20.324Z,6.50
2019-02-15T23:55:47.390Z,6.40
2019-02-15T23:58:14.457Z,5.90
